Time;durP1;ratioP1;P1;durP2;ratioP2;P2;SDS_P1;SDS_P2;PMS_P1;PMS_P2;Temp;Humidity;BMP_temperature;BMP_pressure;BME280_temperature;BME280_humidity;BME280_pressure;Samples;Min_cycle;Max_cycle;Signal;HPM_P1;HPM_P2
2022/04/23 00:01:13;;;;;;;9.57;7.83;;;;;;;;;;5073206;28;20233;-84
2022/04/23 00:03:40;;;;;;;9.70;7.87;;;;;;;;;;5055867;28;20210;-83
2022/04/23 00:06:09;;;;;;;11.30;7.70;;;;;;;;;;5055406;28;20706;-83
2022/04/23 00:08:36;;;;;;;9.43;7.40;;;;;;;;;;5055580;28;20217;-83
2022/04/23 00:11:03;;;;;;;10.67;7.67;;;;;;;;;;5054890;28;20627;-83
2022/04/23 00:13:31;;;;;;;8.93;7.70;;;;;;;;;;5055407;28;20276;-83
2022/04/23 00:15:58;;;;;;;9.30;8.23;;;;;;;;;;5054628;28;20230;-83
2022/04/23 00:18:25;;;;;;;9.00;7.80;;;;;;;;;;5055137;28;20229;-83
2022/04/23 00:20:52;;;;;;;8.87;7.63;;;;;;;;;;5054941;28;20234;-83
2022/04/23 00:23:19;;;;;;;9.57;8.13;;;;;;;;;;5054832;28;20237;-83
2022/04/23 00:25:50;;;;;;;11.57;8.03;;;;;;;;;;5054650;28;20647;-83
2022/04/23 00:28:18;;;;;;;10.83;9.17;;;;;;;;;;5055475;28;20531;-83
2022/04/23 00:30:46;;;;;;;9.87;8.37;;;;;;;;;;5054779;28;20253;-83
2022/04/23 00:33:13;;;;;;;11.97;8.90;;;;;;;;;;5054645;28;20222;-83
2022/04/23 00:35:41;;;;;;;9.17;8.07;;;;;;;;;;5054396;28;20324;-83
2022/04/23 00:38:08;;;;;;;10.67;8.77;;;;;;;;;;5054846;28;20222;-83
2022/04/23 00:40:36;;;;;;;9.90;8.43;;;;;;;;;;5054037;28;20240;-83
2022/04/23 00:43:09;;;;;;;9.33;8.33;;;;;;;;;;5054988;28;20222;-83
2022/04/23 00:45:36;;;;;;;10.53;8.97;;;;;;;;;;5054209;28;20240;-83
2022/04/23 00:48:05;;;;;;;9.77;8.73;;;;;;;;;;5054402;28;20715;-83
2022/04/23 00:50:32;;;;;;;9.27;7.90;;;;;;;;;;5054221;28;20237;-83
2022/04/23 00:53:02;;;;;;;11.10;9.40;;;;;;;;;;5054702;28;20232;-83
2022/04/23 00:55:30;;;;;;;9.50;8.50;;;;;;;;;;5054024;28;20312;-83
2022/04/23 00:57:58;;;;;;;10.60;9.13;;;;;;;;;;5046136;28;20694;-83
2022/04/23 01:00:25;;;;;;;10.33;8.93;;;;;;;;;;5051065;28;20237;-83
2022/04/23 01:02:54;;;;;;;12.40;9.37;;;;;;;;;;5054879;28;20742;-82
2022/04/23 01:05:23;;;;;;;10.47;8.97;;;;;;;;;;5054323;28;20233;-83
2022/04/23 01:07:51;;;;;;;15.37;9.80;;;;;;;;;;5043303;28;20233;-83
2022/04/23 01:10:19;;;;;;;11.33;9.40;;;;;;;;;;5064180;28;20255;-82
2022/04/23 01:12:46;;;;;;;11.80;9.47;;;;;;;;;;5074615;28;20234;-82
2022/04/23 01:15:14;;;;;;;12.23;9.17;;;;;;;;;;5064189;28;20237;-83
2022/04/23 01:17:42;;;;;;;12.70;9.67;;;;;;;;;;5054480;28;20300;-82
2022/04/23 01:20:11;;;;;;;11.47;9.77;;;;;;;;;;5053729;28;20240;-83
2022/04/23 01:22:39;;;;;;;12.73;9.73;;;;;;;;;;5054330;28;20222;-83
2022/04/23 01:25:07;;;;;;;11.20;10.00;;;;;;;;;;5054029;28;20259;-83
2022/04/23 01:27:34;;;;;;;10.43;9.00;;;;;;;;;;5054468;28;20324;-83
2022/04/23 01:30:01;;;;;;;11.67;10.00;;;;;;;;;;5053453;28;20290;-83
2022/04/23 01:32:29;;;;;;;12.83;10.07;;;;;;;;;;5058984;28;20230;-82
2022/04/23 01:34:56;;;;;;;10.47;9.33;;;;;;;;;;5064311;28;20221;-82
2022/04/23 01:37:24;;;;;;;10.60;9.50;;;;;;;;;;5057996;28;20210;-82
2022/04/23 01:39:51;;;;;;;11.53;10.33;;;;;;;;;;5055166;28;20230;-83
2022/04/23 01:42:19;;;;;;;11.90;10.17;;;;;;;;;;5054855;28;20222;-83
2022/04/23 01:44:46;;;;;;;12.63;10.53;;;;;;;;;;5053724;28;20229;-83
2022/04/23 01:47:13;;;;;;;12.67;9.90;;;;;;;;;;5054062;28;20202;-83
2022/04/23 01:49:41;;;;;;;11.50;10.10;;;;;;;;;;5053365;28;20240;-83
2022/04/23 01:52:08;;;;;;;11.93;10.00;;;;;;;;;;5053764;28;20229;-83
2022/04/23 01:54:36;;;;;;;16.50;9.60;;;;;;;;;;5053099;28;20237;-83
2022/04/23 01:57:04;;;;;;;12.50;10.60;;;;;;;;;;5053125;28;20217;-83
2022/04/23 01:59:31;;;;;;;11.00;9.80;;;;;;;;;;5052062;28;20261;-83
2022/04/23 02:01:58;;;;;;;11.20;9.97;;;;;;;;;;5053730;28;20596;-84
2022/04/23 02:04:25;;;;;;;13.40;10.40;;;;;;;;;;5053075;28;20275;-83
2022/04/23 02:06:53;;;;;;;12.57;10.90;;;;;;;;;;5053493;28;20244;-84
2022/04/23 02:09:20;;;;;;;10.83;9.73;;;;;;;;;;5052705;28;20233;-83
2022/04/23 02:11:48;;;;;;;11.43;10.13;;;;;;;;;;5053407;28;20232;-83
2022/04/23 02:14:16;;;;;;;12.97;10.87;;;;;;;;;;5053261;28;20206;-83
2022/04/23 02:16:43;;;;;;;12.27;10.43;;;;;;;;;;5053533;28;20202;-83
2022/04/23 02:19:10;;;;;;;11.37;10.17;;;;;;;;;;5052530;28;20228;-83
2022/04/23 02:21:38;;;;;;;11.97;10.77;;;;;;;;;;5053403;28;20233;-83
2022/04/23 02:24:05;;;;;;;13.87;10.47;;;;;;;;;;5052930;28;20267;-83
2022/04/23 02:26:32;;;;;;;12.17;10.60;;;;;;;;;;5052761;28;20202;-83
2022/04/23 02:29:01;;;;;;;12.70;10.73;;;;;;;;;;5053484;28;20202;-83
2022/04/23 02:31:28;;;;;;;13.27;10.87;;;;;;;;;;5052870;28;20222;-83
2022/04/23 02:33:56;;;;;;;14.73;11.43;;;;;;;;;;5053296;28;20217;-82
2022/04/23 02:36:23;;;;;;;11.43;9.87;;;;;;;;;;5052073;28;20234;-83
2022/04/23 02:38:51;;;;;;;12.23;10.23;;;;;;;;;;5052324;28;20214;-83
2022/04/23 02:41:18;;;;;;;15.67;10.43;;;;;;;;;;5053174;28;20755;-82
2022/04/23 02:43:45;;;;;;;11.43;10.00;;;;;;;;;;5052904;28;20217;-82
2022/04/23 02:46:15;;;;;;;12.03;10.43;;;;;;;;;;5052441;28;20243;-82
2022/04/23 02:48:42;;;;;;;11.60;10.37;;;;;;;;;;5052616;28;20203;-83
2022/04/23 02:51:11;;;;;;;13.43;10.53;;;;;;;;;;5051812;28;20630;-83
2022/04/23 02:53:38;;;;;;;12.33;10.53;;;;;;;;;;5052710;28;20305;-83
2022/04/23 02:56:07;;;;;;;12.77;10.13;;;;;;;;;;5052185;28;20240;-83
2022/04/23 02:58:38;;;;;;;14.17;10.53;;;;;;;;;;5053564;28;20635;-83
2022/04/23 03:01:09;;;;;;;14.23;10.40;;;;;;;;;;5052277;28;20237;-82
2022/04/23 03:03:40;;;;;;;10.80;9.70;;;;;;;;;;5052813;28;20186;-82
2022/04/23 03:06:07;;;;;;;11.93;10.03;;;;;;;;;;5051873;28;20234;-83
2022/04/23 03:08:37;;;;;;;12.87;10.60;;;;;;;;;;5052315;28;20212;-83
2022/04/23 03:11:05;;;;;;;12.17;10.90;;;;;;;;;;5054121;28;20241;-83
2022/04/23 03:13:34;;;;;;;13.90;10.70;;;;;;;;;;5056444;28;20210;-83
2022/04/23 03:16:01;;;;;;;12.93;11.10;;;;;;;;;;5055969;28;20267;-83
2022/04/23 03:18:28;;;;;;;13.30;10.17;;;;;;;;;;5056217;28;20249;-84
2022/04/23 03:20:58;;;;;;;13.27;10.77;;;;;;;;;;5055800;28;20238;-84
2022/04/23 03:23:25;;;;;;;12.87;10.63;;;;;;;;;;5056253;28;20233;-83
2022/04/23 03:25:52;;;;;;;13.97;10.90;;;;;;;;;;5056359;28;20233;-82
2022/04/23 03:28:20;;;;;;;14.87;11.53;;;;;;;;;;5056471;28;20210;-82
2022/04/23 03:30:47;;;;;;;13.07;10.83;;;;;;;;;;5055707;28;20233;-82
2022/04/23 03:33:15;;;;;;;13.77;10.40;;;;;;;;;;5056157;28;20229;-82
2022/04/23 03:35:42;;;;;;;12.00;10.30;;;;;;;;;;5055556;28;20241;-83
2022/04/23 03:38:10;;;;;;;12.10;9.97;;;;;;;;;;5056279;28;20249;-82
2022/04/23 03:40:38;;;;;;;12.37;10.00;;;;;;;;;;5055678;28;20582;-82
2022/04/23 03:43:05;;;;;;;12.30;10.47;;;;;;;;;;5056240;28;20627;-82
2022/04/23 03:45:33;;;;;;;14.57;11.53;;;;;;;;;;5055666;28;20592;-83
2022/04/23 03:48:01;;;;;;;13.23;11.13;;;;;;;;;;5056289;28;20276;-82
2022/04/23 03:50:29;;;;;;;12.10;10.87;;;;;;;;;;5055604;28;20233;-83
2022/04/23 03:52:57;;;;;;;13.97;11.03;;;;;;;;;;5056343;28;20254;-82
2022/04/23 03:55:26;;;;;;;13.53;11.50;;;;;;;;;;5055434;28;20237;-83
2022/04/23 03:57:54;;;;;;;16.47;12.20;;;;;;;;;;5055904;28;20235;-83
2022/04/23 04:00:21;;;;;;;12.20;10.90;;;;;;;;;;5054985;28;20245;-82
2022/04/23 04:02:48;;;;;;;12.23;10.23;;;;;;;;;;5055645;28;20228;-82
2022/04/23 04:05:15;;;;;;;11.30;9.43;;;;;;;;;;5054746;28;20701;-82
2022/04/23 04:07:43;;;;;;;11.63;9.87;;;;;;;;;;5055977;28;20218;-83
2022/04/23 04:10:11;;;;;;;12.20;10.47;;;;;;;;;;5056033;28;20238;-82
2022/04/23 04:12:39;;;;;;;13.93;11.03;;;;;;;;;;5056331;28;20221;-83
2022/04/23 04:15:07;;;;;;;13.50;10.90;;;;;;;;;;5065145;28;20245;-83
2022/04/23 04:17:35;;;;;;;14.43;10.87;;;;;;;;;;5092989;28;20646;-83
2022/04/23 04:20:02;;;;;;;14.30;11.87;;;;;;;;;;5091928;28;20240;-83
2022/04/23 04:22:30;;;;;;;13.00;11.60;;;;;;;;;;5093929;28;20235;-83
2022/04/23 04:24:57;;;;;;;14.53;10.50;;;;;;;;;;5095755;28;20216;-81
2022/04/23 04:27:24;;;;;;;15.50;12.30;;;;;;;;;;5095459;28;20273;-81
2022/04/23 04:29:52;;;;;;;14.63;11.17;;;;;;;;;;5094658;28;20229;-82
2022/04/23 04:32:20;;;;;;;14.40;11.83;;;;;;;;;;5094429;28;20233;-81
2022/04/23 04:34:47;;;;;;;16.50;11.80;;;;;;;;;;5094727;28;20229;-82
2022/04/23 04:37:14;;;;;;;14.30;11.43;;;;;;;;;;5094393;28;20212;-82
2022/04/23 04:39:42;;;;;;;14.43;11.77;;;;;;;;;;5093227;28;20241;-82
2022/04/23 04:42:09;;;;;;;14.67;11.90;;;;;;;;;;5095593;28;20277;-82
2022/04/23 04:44:37;;;;;;;14.57;12.90;;;;;;;;;;5095072;28;20235;-82
2022/04/23 04:47:06;;;;;;;17.27;12.67;;;;;;;;;;5091764;28;20205;-83
2022/04/23 04:49:33;;;;;;;15.93;12.97;;;;;;;;;;5081997;28;20228;-83
2022/04/23 04:52:00;;;;;;;16.77;13.00;;;;;;;;;;5077442;28;20217;-83
2022/04/23 04:54:27;;;;;;;16.57;12.63;;;;;;;;;;5075229;28;20290;-84
2022/04/23 04:56:56;;;;;;;14.90;12.37;;;;;;;;;;5075691;28;20216;-83
2022/04/23 04:59:23;;;;;;;14.33;12.63;;;;;;;;;;5075286;28;20233;-85
2022/04/23 05:01:51;;;;;;;14.23;12.13;;;;;;;;;;5075342;28;20594;-84
2022/04/23 05:04:20;;;;;;;17.60;12.40;;;;;;;;;;5075989;28;20227;-83
2022/04/23 05:06:47;;;;;;;15.13;13.03;;;;;;;;;;5078768;28;20201;-84
2022/04/23 05:09:14;;;;;;;16.07;13.00;;;;;;;;;;5075218;28;20225;-83
2022/04/23 05:11:41;;;;;;;17.33;13.17;;;;;;;;;;5075549;28;20228;-83
2022/04/23 05:14:08;;;;;;;15.40;13.33;;;;;;;;;;5075262;28;20209;-83
2022/04/23 05:16:35;;;;;;;17.17;13.27;;;;;;;;;;5076101;28;20213;-82
2022/04/23 05:19:02;;;;;;;15.37;12.93;;;;;;;;;;5097246;22;20311;-82
2022/04/23 05:21:31;;;;;;;16.07;13.07;;;;;;;;;;5066212;28;20205;-81
2022/04/23 05:23:58;;;;;;;17.13;13.87;;;;;;;;;;5076256;28;20288;-81
2022/04/23 05:26:25;;;;;;;15.40;12.23;;;;;;;;;;5062586;28;20225;-84
2022/04/23 05:28:52;;;;;;;14.77;12.30;;;;;;;;;;5050619;28;20202;-85
2022/04/23 05:31:21;;;;;;;16.13;13.17;;;;;;;;;;5077411;28;20243;-84
2022/04/23 05:33:48;;;;;;;15.40;13.23;;;;;;;;;;5079484;28;20221;-85
2022/04/23 05:36:15;;;;;;;16.03;12.70;;;;;;;;;;5076964;27;20287;-83
2022/04/23 05:38:43;;;;;;;14.47;12.50;;;;;;;;;;5076098;28;20220;-83
2022/04/23 05:41:10;;;;;;;16.33;12.80;;;;;;;;;;5076196;27;20240;-82
2022/04/23 05:43:37;;;;;;;13.90;12.40;;;;;;;;;;5078742;28;20178;-79
2022/04/23 05:46:04;;;;;;;14.10;11.73;;;;;;;;;;5084407;28;20237;-83
2022/04/23 05:48:31;;;;;;;12.17;10.57;;;;;;;;;;5080512;28;20206;-81
2022/04/23 05:50:59;;;;;;;12.53;11.07;;;;;;;;;;5076887;28;20697;-83
2022/04/23 05:53:26;;;;;;;12.10;10.23;;;;;;;;;;5075952;28;20201;-83
2022/04/23 05:55:56;;;;;;;11.90;9.53;;;;;;;;;;5076355;27;20241;-85
2022/04/23 05:58:23;;;;;;;12.07;8.47;;;;;;;;;;5074091;28;20196;-84
2022/04/23 06:00:51;;;;;;;8.37;7.57;;;;;;;;;;5073249;28;20263;-83
2022/04/23 06:03:19;;;;;;;8.10;7.37;;;;;;;;;;5074006;28;20229;-83
2022/04/23 06:05:46;;;;;;;7.77;6.97;;;;;;;;;;5088092;28;20311;-82
2022/04/23 06:08:13;;;;;;;7.10;6.40;;;;;;;;;;5093855;28;20189;-84
2022/04/23 06:10:40;;;;;;;6.10;5.60;;;;;;;;;;5078661;28;20233;-83
2022/04/23 06:13:09;;;;;;;6.47;5.77;;;;;;;;;;5073549;28;20588;-83
2022/04/23 06:15:47;;;;;;;6.20;5.33;;;;;;;;;;5072622;28;20237;-82
2022/04/23 06:18:14;;;;;;;5.40;4.90;;;;;;;;;;5073495;28;20209;-85
2022/04/23 06:20:53;;;;;;;5.90;5.30;;;;;;;;;;5072338;28;20241;-85
2022/04/23 06:23:20;;;;;;;6.27;4.83;;;;;;;;;;5073687;28;20241;-85
2022/04/23 06:25:47;;;;;;;5.20;4.77;;;;;;;;;;5072692;28;20622;-85
2022/04/23 06:28:15;;;;;;;5.10;4.60;;;;;;;;;;5073867;28;20661;-86
2022/04/23 06:30:43;;;;;;;4.23;3.93;;;;;;;;;;5073480;28;20319;-84
2022/04/23 06:33:10;;;;;;;5.43;4.20;;;;;;;;;;5074007;28;20209;-84
2022/04/23 06:35:37;;;;;;;6.83;4.53;;;;;;;;;;5076067;28;20264;-86
2022/04/23 06:38:04;;;;;;;4.67;4.27;;;;;;;;;;5077548;28;20220;-85
2022/04/23 06:40:31;;;;;;;5.40;4.23;;;;;;;;;;5075607;28;20712;-84
2022/04/23 06:42:58;;;;;;;4.70;4.30;;;;;;;;;;5075293;28;20220;-85
2022/04/23 06:45:27;;;;;;;4.60;4.20;;;;;;;;;;5072700;28;20233;-85
2022/04/23 06:48:04;;;;;;;4.43;4.13;;;;;;;;;;5073510;28;20216;-85
2022/04/23 06:50:31;;;;;;;4.83;4.43;;;;;;;;;;5074872;28;20241;-85
2022/04/23 06:52:58;;;;;;;4.63;4.23;;;;;;;;;;5075907;28;20211;-85
2022/04/23 06:55:25;;;;;;;4.80;4.07;;;;;;;;;;5073722;28;20244;-85
2022/04/23 06:57:53;;;;;;;4.40;4.10;;;;;;;;;;5061230;28;20213;-85
2022/04/23 07:00:24;;;;;;;4.87;4.10;;;;;;;;;;5064892;28;20303;-87
2022/04/23 07:02:52;;;;;;;8.53;4.63;;;;;;;;;;5060899;28;20198;-85
2022/04/23 07:05:20;;;;;;;6.63;4.60;;;;;;;;;;5052460;28;20229;-84
2022/04/23 07:07:57;;;;;;;4.30;4.00;;;;;;;;;;5052705;28;20205;-84
2022/04/23 07:10:25;;;;;;;5.63;4.67;;;;;;;;;;5052021;28;20241;-85
2022/04/23 07:12:53;;;;;;;5.10;4.53;;;;;;;;;;5053619;28;20214;-85
2022/04/23 07:15:21;;;;;;;6.73;4.33;;;;;;;;;;5052664;28;20283;-85
2022/04/23 07:17:48;;;;;;;4.27;3.87;;;;;;;;;;5053002;28;20248;-85
2022/04/23 07:20:17;;;;;;;5.30;4.80;;;;;;;;;;5052072;28;20229;-83
2022/04/23 07:24:03;;;;;;;5.43;4.37;;;;;;;;;;5053042;28;20225;-85
2022/04/23 07:25:33;;;;;;;5.20;4.70;;;;;;;;;;5052235;28;20308;-84
2022/04/23 07:28:01;;;;;;;5.10;4.60;;;;;;;;;;5052712;28;20728;-85
2022/04/23 07:30:28;;;;;;;4.53;4.13;;;;;;;;;;5052264;28;20230;-84
2022/04/23 07:32:55;;;;;;;4.53;4.13;;;;;;;;;;5052409;28;20217;-85
2022/04/23 07:38:13;;;;;;;9.60;4.27;;;;;;;;;;5052334;28;20625;-84
2022/04/23 07:40:40;;;;;;;5.27;4.00;;;;;;;;;;5051982;28;20238;-84
2022/04/23 07:43:12;;;;;;;3.97;3.63;;;;;;;;;;5052754;28;20202;-85
2022/04/23 07:45:39;;;;;;;8.87;3.97;;;;;;;;;;5051981;28;20713;-83
2022/04/23 07:48:06;;;;;;;3.93;3.63;;;;;;;;;;5052760;28;20210;-84
2022/04/23 07:50:35;;;;;;;4.80;3.83;;;;;;;;;;5052032;28;20877;-84
2022/04/23 07:53:02;;;;;;;3.87;3.57;;;;;;;;;;5053156;28;20195;-85
2022/04/23 07:55:32;;;;;;;4.03;3.70;;;;;;;;;;5055407;28;20238;-85
2022/04/23 07:58:09;;;;;;;4.50;4.10;;;;;;;;;;5055546;28;20318;-85
2022/04/23 08:00:36;;;;;;;4.40;3.77;;;;;;;;;;5056002;28;20233;-85
2022/04/23 08:03:04;;;;;;;4.00;3.70;;;;;;;;;;5076186;28;20409;-85
2022/04/23 08:05:31;;;;;;;5.00;3.50;;;;;;;;;;5075873;28;20661;-85
2022/04/23 08:08:02;;;;;;;6.47;3.20;;;;;;;;;;5076382;28;20198;-86
2022/04/23 08:10:29;;;;;;;3.50;3.20;;;;;;;;;;5075391;28;20236;-85
2022/04/23 08:12:56;;;;;;;3.97;3.40;;;;;;;;;;5075851;28;20594;-85
2022/04/23 08:15:26;;;;;;;3.73;2.97;;;;;;;;;;5075179;28;20233;-85
2022/04/23 08:17:53;;;;;;;3.43;3.13;;;;;;;;;;5075799;28;20205;-85
2022/04/23 08:20:20;;;;;;;3.50;3.20;;;;;;;;;;5074741;28;20233;-85
2022/04/23 08:22:47;;;;;;;3.60;3.30;;;;;;;;;;5076119;28;20674;-85
2022/04/23 08:25:16;;;;;;;3.93;3.63;;;;;;;;;;5075831;28;20251;-85
2022/04/23 08:27:49;;;;;;;3.30;3.00;;;;;;;;;;5075714;28;20240;-85
2022/04/23 08:30:34;;;;;;;3.63;3.17;;;;;;;;;;5074571;28;20240;-85
2022/04/23 08:33:01;;;;;;;3.13;2.93;;;;;;;;;;5076049;28;20181;-85
2022/04/23 08:35:28;;;;;;;3.40;3.10;;;;;;;;;;5074689;28;20232;-86
2022/04/23 08:37:55;;;;;;;4.23;3.67;;;;;;;;;;5075205;28;20209;-85
2022/04/23 08:40:29;;;;;;;3.70;3.40;;;;;;;;;;5074533;28;20235;-85
2022/04/23 08:42:57;;;;;;;8.68;3.78;;;;;;;;;;5075348;28;20634;-85
2022/04/23 08:45:24;;;;;;;4.03;3.72;;;;;;;;;;5074536;28;20237;-86
2022/04/23 08:47:52;;;;;;;4.22;3.83;;;;;;;;;;5075518;28;20666;-85
2022/04/23 08:50:22;;;;;;;5.97;4.13;;;;;;;;;;5074846;28;20236;-85
2022/04/23 08:52:53;;;;;;;4.63;3.80;;;;;;;;;;5075087;28;20669;-85
2022/04/23 08:55:20;;;;;;;7.18;4.32;;;;;;;;;;5074622;28;20237;-86
2022/04/23 08:57:48;;;;;;;6.28;3.97;;;;;;;;;;5075095;28;20209;-85
2022/04/23 09:00:16;;;;;;;4.82;4.32;;;;;;;;;;5074124;28;20717;-86
2022/04/23 09:02:44;;;;;;;4.75;4.35;;;;;;;;;;5057008;28;20665;-85
2022/04/23 09:05:12;;;;;;;5.40;3.90;;;;;;;;;;5054360;28;20240;-84
2022/04/23 09:07:39;;;;;;;4.75;4.35;;;;;;;;;;5055692;28;20202;-85
2022/04/23 09:10:10;;;;;;;4.28;3.95;;;;;;;;;;5054294;28;20233;-85
2022/04/23 09:12:53;;;;;;;4.15;3.75;;;;;;;;;;5055001;28;20198;-85
2022/04/23 09:23:46;;;;;;;5.45;3.92;;;;;;;;;;5054341;28;20189;-85
2022/04/23 09:26:17;;;;;;;4.50;3.85;;;;;;;;;;5053735;28;20234;-87
2022/04/23 09:28:46;;;;;;;3.65;3.35;;;;;;;;;;5054040;28;20218;-86
2022/04/23 09:31:16;;;;;;;8.95;3.78;;;;;;;;;;5053808;28;20258;-86
2022/04/23 09:33:44;;;;;;;4.03;3.72;;;;;;;;;;5054462;28;20616;-86
2022/04/23 09:36:12;;;;;;;4.80;3.65;;;;;;;;;;5053944;28;20234;-86
2022/04/23 09:38:39;;;;;;;4.40;4.00;;;;;;;;;;5054537;28;20264;-85
2022/04/23 09:41:16;;;;;;;4.25;3.95;;;;;;;;;;5053510;28;20312;-86
2022/04/23 09:43:44;;;;;;;4.88;3.90;;;;;;;;;;5054043;28;20244;-86
2022/04/23 09:46:11;;;;;;;4.25;3.88;;;;;;;;;;5053507;28;20233;-86
2022/04/23 09:48:43;;;;;;;4.50;4.10;;;;;;;;;;5054273;28;20213;-85
2022/04/23 09:51:21;;;;;;;4.43;3.97;;;;;;;;;;5053367;28;20669;-86
2022/04/23 09:53:49;;;;;;;4.45;3.50;;;;;;;;;;5053991;28;20191;-84
2022/04/23 09:56:17;;;;;;;3.72;3.42;;;;;;;;;;5054338;28;20241;-85
2022/04/23 09:58:44;;;;;;;8.80;4.05;;;;;;;;;;5059163;28;20213;-86
2022/04/23 10:01:12;;;;;;;4.68;4.28;;;;;;;;;;5053299;28;20237;-86
2022/04/23 10:03:46;;;;;;;4.38;3.95;;;;;;;;;;5054115;28;20697;-87
2022/04/23 10:06:13;;;;;;;4.10;3.78;;;;;;;;;;5053295;28;20234;-85
2022/04/23 10:08:41;;;;;;;4.10;3.80;;;;;;;;;;5053570;28;20297;-85
2022/04/23 10:11:12;;;;;;;4.97;4.57;;;;;;;;;;5053042;28;20256;-85
2022/04/23 10:13:40;;;;;;;5.55;5.05;;;;;;;;;;5054555;28;20209;-86
2022/04/23 10:16:10;;;;;;;4.63;4.22;;;;;;;;;;5053695;28;20276;-86
2022/04/23 10:18:38;;;;;;;5.43;4.25;;;;;;;;;;5053491;28;20596;-86
2022/04/23 10:21:08;;;;;;;5.13;4.63;;;;;;;;;;5051926;28;20242;-85
2022/04/23 10:23:42;;;;;;;4.95;4.55;;;;;;;;;;5053675;28;20649;-86
2022/04/23 10:26:22;;;;;;;8.40;5.25;;;;;;;;;;5052822;28;20238;-86
2022/04/23 10:28:50;;;;;;;5.32;4.82;;;;;;;;;;5053126;28;20664;-85
2022/04/23 10:31:17;;;;;;;7.25;4.90;;;;;;;;;;5052734;28;20244;-87
2022/04/23 10:33:46;;;;;;;6.55;5.22;;;;;;;;;;5053159;28;20209;-86
2022/04/23 10:36:16;;;;;;;6.60;5.10;;;;;;;;;;5052714;28;20745;-84
2022/04/23 10:38:45;;;;;;;5.97;5.15;;;;;;;;;;5053122;28;20205;-84
2022/04/23 10:41:13;;;;;;;5.82;5.20;;;;;;;;;;5051362;28;20232;-86
2022/04/23 10:43:47;;;;;;;7.78;5.60;;;;;;;;;;5053280;28;20206;-86
2022/04/23 10:46:30;;;;;;;6.70;5.72;;;;;;;;;;5052664;28;20681;-86
2022/04/23 10:49:13;;;;;;;6.47;5.88;;;;;;;;;;5052960;28;20210;-86
2022/04/23 10:51:49;;;;;;;6.95;6.25;;;;;;;;;;5052907;28;20271;-86
2022/04/23 10:54:18;;;;;;;6.55;5.85;;;;;;;;;;5052279;28;20297;-86
2022/04/23 10:56:49;;;;;;;6.65;5.90;;;;;;;;;;5053145;28;20549;-86
2022/04/23 10:59:35;;;;;;;6.57;5.90;;;;;;;;;;5052301;28;20610;-86
2022/04/23 11:02:05;;;;;;;6.07;5.45;;;;;;;;;;5052865;28;20229;-86
2022/04/23 11:04:33;;;;;;;7.30;6.60;;;;;;;;;;5052512;28;20225;-86
2022/04/23 11:12:30;;;;;;;7.55;6.70;;;;;;;;;;5052651;28;20638;-86
2022/04/23 11:14:57;;;;;;;7.13;6.43;;;;;;;;;;5052505;28;20928;-86
2022/04/23 11:17:25;;;;;;;8.27;7.47;;;;;;;;;;5053067;28;20202;-86
2022/04/23 11:19:53;;;;;;;8.77;6.25;;;;;;;;;;5052957;28;20244;-87
2022/04/23 11:22:22;;;;;;;7.72;6.88;;;;;;;;;;5052997;28;20230;-86
2022/04/23 11:24:49;;;;;;;8.05;7.25;;;;;;;;;;5052882;28;20280;-85
2022/04/23 11:27:36;;;;;;;8.10;6.60;;;;;;;;;;5053294;28;20213;-86
2022/04/23 11:30:04;;;;;;;8.55;6.72;;;;;;;;;;5052651;28;20238;-86
2022/04/23 11:32:32;;;;;;;7.15;6.43;;;;;;;;;;5055743;28;20206;-85
2022/04/23 11:34:59;;;;;;;7.40;6.13;;;;;;;;;;5055676;28;20724;-86
2022/04/23 11:37:31;;;;;;;6.63;5.80;;;;;;;;;;5056426;28;20213;-86
2022/04/23 11:40:05;;;;;;;8.55;7.38;;;;;;;;;;5055549;28;20741;-87
2022/04/23 11:42:39;;;;;;;7.55;6.82;;;;;;;;;;5056319;28;20225;-87
2022/04/23 11:45:09;;;;;;;8.10;7.30;;;;;;;;;;5055926;28;20237;-86
2022/04/23 11:47:36;;;;;;;9.18;8.27;;;;;;;;;;5056811;28;20669;-86
2022/04/23 11:50:14;;;;;;;8.23;7.43;;;;;;;;;;5056888;28;20234;-86
2022/04/23 11:52:43;;;;;;;10.65;8.70;;;;;;;;;;5057676;28;20189;-86
2022/04/23 11:55:20;;;;;;;11.80;9.90;;;;;;;;;;5057363;28;20237;-85
2022/04/23 11:57:54;;;;;;;11.20;9.05;;;;;;;;;;5058343;28;20190;-86
2022/04/23 12:00:21;;;;;;;10.10;8.88;;;;;;;;;;5056451;28;20233;-86
2022/04/23 12:02:48;;;;;;;10.77;9.38;;;;;;;;;;5057263;28;20225;-87
2022/04/23 12:05:22;;;;;;;14.68;10.32;;;;;;;;;;5056727;28;20241;-86
2022/04/23 12:07:50;;;;;;;12.73;10.07;;;;;;;;;;5057002;28;20593;-85
2022/04/23 12:10:37;;;;;;;12.82;10.25;;;;;;;;;;5056256;28;20245;-87
2022/04/23 12:13:07;;;;;;;12.68;9.55;;;;;;;;;;5057379;28;20218;-87
2022/04/23 12:15:36;;;;;;;10.82;9.68;;;;;;;;;;5056910;28;20233;-86
2022/04/23 12:18:14;;;;;;;12.32;10.73;;;;;;;;;;5057950;28;20206;-87
2022/04/23 12:20:42;;;;;;;13.40;10.52;;;;;;;;;;5056074;28;20241;-86
2022/04/23 12:23:11;;;;;;;16.73;10.75;;;;;;;;;;5056987;28;20236;-87
2022/04/23 12:25:38;;;;;;;12.55;11.13;;;;;;;;;;5061009;28;20238;-87
2022/04/23 12:40:43;;;;;;;13.18;10.50;;;;;;;;;;5056926;28;20666;-87
2022/04/23 12:42:05;;;;;;;12.32;10.75;;;;;;;;;;5065770;28;20240;-86
2022/04/23 12:44:35;;;;;;;14.33;11.10;;;;;;;;;;5064247;28;20229;-86
2022/04/23 12:47:03;;;;;;;13.20;10.73;;;;;;;;;;5063064;28;20331;-86
2022/04/23 12:49:52;;;;;;;14.98;10.88;;;;;;;;;;5063957;28;20237;-86
2022/04/23 12:52:20;;;;;;;11.93;9.77;;;;;;;;;;5060775;28;20217;-86
2022/04/23 12:55:09;;;;;;;14.20;10.57;;;;;;;;;;5062864;28;20647;-86
2022/04/23 12:57:38;;;;;;;13.20;10.07;;;;;;;;;;5064153;28;20293;-86
2022/04/23 13:00:06;;;;;;;13.68;11.00;;;;;;;;;;5061237;28;20604;-86
2022/04/23 13:02:35;;;;;;;12.30;9.93;;;;;;;;;;5060672;28;20226;-87
2022/04/23 13:05:02;;;;;;;10.82;9.55;;;;;;;;;;5060243;28;20276;-87
2022/04/23 13:10:13;;;;;;;14.23;9.40;;;;;;;;;;5063972;28;20849;-86
2022/04/23 13:12:42;;;;;;;10.57;9.00;;;;;;;;;;5060833;28;20202;-86
2022/04/23 13:15:09;;;;;;;9.70;8.70;;;;;;;;;;5060811;28;20316;-86
2022/04/23 13:17:38;;;;;;;11.30;9.25;;;;;;;;;;5058372;28;20206;-86
2022/04/23 13:20:06;;;;;;;15.60;9.73;;;;;;;;;;5057840;28;20245;-87
2022/04/23 13:22:33;;;;;;;10.95;9.52;;;;;;;;;;5055194;28;20232;-86
2022/04/23 13:25:00;;;;;;;11.88;9.23;;;;;;;;;;5054108;28;20233;-86
2022/04/23 13:27:28;;;;;;;9.80;8.70;;;;;;;;;;5054282;28;20721;-86
2022/04/23 13:29:56;;;;;;;10.55;8.90;;;;;;;;;;5053874;28;20663;-85
2022/04/23 13:32:23;;;;;;;14.73;9.98;;;;;;;;;;5054839;28;20705;-85
2022/04/23 13:34:50;;;;;;;10.88;8.77;;;;;;;;;;5053906;28;20230;-86
2022/04/23 13:37:33;;;;;;;14.82;10.48;;;;;;;;;;5055242;28;20216;-86
2022/04/23 13:40:01;;;;;;;12.07;9.60;;;;;;;;;;5054194;28;20241;-86
2022/04/23 13:42:28;;;;;;;11.55;9.35;;;;;;;;;;5054427;28;20222;-86
2022/04/23 13:44:57;;;;;;;10.40;9.23;;;;;;;;;;5053831;28;20233;-86
2022/04/23 13:47:25;;;;;;;12.68;9.65;;;;;;;;;;5053942;28;20205;-84
2022/04/23 13:49:52;;;;;;;13.80;10.10;;;;;;;;;;5053376;28;20246;-86
2022/04/23 13:52:19;;;;;;;11.40;9.40;;;;;;;;;;5054213;28;20202;-86
2022/04/23 13:54:47;;;;;;;11.18;9.43;;;;;;;;;;5053275;28;20716;-86
2022/04/23 13:57:14;;;;;;;12.82;9.60;;;;;;;;;;5054773;28;20217;-86
2022/04/23 13:59:41;;;;;;;12.30;10.05;;;;;;;;;;5055186;28;20284;-85
2022/04/23 14:10:23;;;;;;;18.05;10.35;;;;;;;;;;5053484;28;20727;-86
2022/04/23 20:32:23;;;;;;;9.03;6.50;;;;;;;;;;5054211;22;20407;-84
2022/04/23 20:40:19;;;;;;;8.07;6.60;;;;;;;;;;5039575;28;20314;-85
2022/04/23 20:42:46;;;;;;;7.43;6.50;;;;;;;;;;5041011;28;20235;-86
2022/04/23 20:45:14;;;;;;;8.03;6.80;;;;;;;;;;5037956;28;20240;-85
2022/04/23 20:47:42;;;;;;;7.43;6.00;;;;;;;;;;5038076;28;20207;-84
2022/04/23 20:50:10;;;;;;;7.37;6.67;;;;;;;;;;5037178;28;20239;-85
2022/04/23 20:55:22;;;;;;;9.47;7.47;;;;;;;;;;5037323;28;20356;-85
2022/04/23 20:57:49;;;;;;;9.40;7.40;;;;;;;;;;5039842;28;20221;-85
2022/04/23 21:00:16;;;;;;;8.20;7.27;;;;;;;;;;5037174;28;20422;-85
2022/04/23 21:02:45;;;;;;;9.13;7.73;;;;;;;;;;5056526;28;20230;-84
2022/04/23 21:05:13;;;;;;;8.60;7.47;;;;;;;;;;5061261;28;20237;-84
2022/04/23 21:07:40;;;;;;;8.77;7.50;;;;;;;;;;5059187;28;20257;-84
2022/04/23 21:10:11;;;;;;;8.33;7.40;;;;;;;;;;5057640;28;20238;-84
2022/04/23 21:12:38;;;;;;;10.80;7.50;;;;;;;;;;5056610;28;20221;-85
2022/04/23 21:15:06;;;;;;;9.13;7.47;;;;;;;;;;5055978;28;20316;-85
2022/04/23 21:17:33;;;;;;;8.70;7.57;;;;;;;;;;5057471;28;20206;-85
2022/04/23 21:20:01;;;;;;;8.57;7.20;;;;;;;;;;5057041;28;20253;-84
2022/04/23 21:22:28;;;;;;;9.53;8.10;;;;;;;;;;5058957;28;20230;-85
2022/04/23 21:24:57;;;;;;;11.27;8.23;;;;;;;;;;5062679;28;20226;-84
2022/04/23 21:27:24;;;;;;;9.07;7.33;;;;;;;;;;5064446;28;20209;-85
2022/04/23 21:29:51;;;;;;;9.10;7.70;;;;;;;;;;5061809;28;20226;-85
2022/04/23 21:32:18;;;;;;;10.23;8.40;;;;;;;;;;5059336;28;20213;-85
2022/04/23 21:34:46;;;;;;;10.93;8.20;;;;;;;;;;5061051;28;20230;-84
2022/04/23 21:37:15;;;;;;;9.53;7.67;;;;;;;;;;5065509;28;20210;-84
2022/04/23 21:39:43;;;;;;;8.87;7.30;;;;;;;;;;5063332;28;20225;-84
2022/04/23 21:44:55;;;;;;;9.67;7.27;;;;;;;;;;5057782;28;20232;-84
2022/04/23 21:47:26;;;;;;;8.20;7.30;;;;;;;;;;5057245;28;20293;-83
2022/04/23 21:49:54;;;;;;;8.77;7.10;;;;;;;;;;5056210;28;20644;-84